Time;durP1;ratioP1;P1;durP2;ratioP2;P2;SDS_P1;SDS_P2;PMS_P1;PMS_P2;Temp;Humidity;BMP_temperature;BMP_pressure;BME280_temperature;BME280_humidity;BME280_pressure;Samples;Min_cycle;Max_cycle;Signal;HPM_P1;HPM_P2
2022/01/31 00:02:03;;;;;;;24.45;7.38;;;1.90;99.90;;;;;;5041065;28;20022;-74
2022/01/31 00:04:28;;;;;;;28.83;8.13;;;2.00;99.90;;;;;;5028465;28;20040;-74
2022/01/31 00:06:54;;;;;;;21.88;7.57;;;2.10;99.90;;;;;;5034924;28;20017;-73
2022/01/31 00:09:22;;;;;;;26.67;8.25;;;2.00;99.90;;;;;;5040046;28;20104;-73
2022/01/31 00:11:57;;;;;;;28.80;9.05;;;2.00;99.90;;;;;;5039956;28;20033;-73
2022/01/31 00:14:37;;;;;;;30.40;8.32;;;2.00;99.90;;;;;;5031279;28;20375;-74
2022/01/31 00:17:03;;;;;;;31.33;8.15;;;2.10;99.90;;;;;;5042945;28;20021;-72
2022/01/31 00:19:29;;;;;;;25.70;7.60;;;2.00;99.90;;;;;;5048069;28;20022;-73
2022/01/31 00:21:55;;;;;;;26.90;7.40;;;2.00;99.90;;;;;;5035137;28;20088;-73
2022/01/31 00:24:21;;;;;;;24.20;7.80;;;2.10;99.90;;;;;;5047491;28;20032;-73
2022/01/31 00:26:46;;;;;;;22.58;7.80;;;2.20;99.90;;;;;;5049600;28;20025;-73
2022/01/31 00:29:12;;;;;;;26.88;8.32;;;2.10;99.90;;;;;;5036894;28;20032;-73
2022/01/31 00:31:37;;;;;;;24.67;8.48;;;1.90;99.90;;;;;;5040276;28;20021;-73
2022/01/31 00:34:03;;;;;;;20.83;7.65;;;2.00;99.90;;;;;;5043600;28;20117;-72
2022/01/31 00:36:28;;;;;;;26.40;7.32;;;2.00;99.90;;;;;;5038353;28;20100;-73
2022/01/31 00:38:54;;;;;;;25.38;7.50;;;2.10;99.90;;;;;;5037172;28;20096;-73
2022/01/31 00:41:19;;;;;;;25.92;8.43;;;2.10;99.90;;;;;;5041467;28;20420;-72
2022/01/31 00:43:55;;;;;;;22.98;8.35;;;2.00;99.90;;;;;;5033740;28;20368;-72
2022/01/31 00:46:26;;;;;;;22.00;7.70;;;2.00;99.90;;;;;;5021901;28;20108;-72
2022/01/31 00:48:52;;;;;;;26.30;8.00;;;2.00;99.90;;;;;;5034130;28;20163;-72
2022/01/31 00:51:17;;;;;;;22.90;7.82;;;2.10;99.90;;;;;;5032739;28;20567;-74
2022/01/31 00:53:43;;;;;;;23.80;7.75;;;2.10;99.90;;;;;;5032525;28;20426;-72
2022/01/31 00:56:09;;;;;;;28.15;7.93;;;2.10;99.90;;;;;;5033750;28;20032;-72
2022/01/31 00:58:35;;;;;;;24.52;7.53;;;2.10;99.90;;;;;;5033869;28;20021;-73
2022/01/31 01:01:00;;;;;;;28.23;8.55;;;2.20;99.90;;;;;;5033304;28;20029;-74
2022/01/31 01:03:26;;;;;;;29.20;7.88;;;2.10;99.90;;;;;;5032207;28;20072;-72
2022/01/31 01:05:52;;;;;;;24.65;8.23;;;2.10;99.90;;;;;;5032381;28;20025;-73
2022/01/31 01:08:18;;;;;;;25.20;7.80;;;2.00;99.90;;;;;;5032398;28;20067;-72
2022/01/31 01:10:43;;;;;;;25.35;6.82;;;2.20;99.90;;;;;;5033350;28;20033;-72
2022/01/31 01:13:09;;;;;;;23.80;7.18;;;2.10;99.90;;;;;;5033217;28;20044;-73
2022/01/31 01:15:34;;;;;;;27.38;7.88;;;2.00;99.90;;;;;;5033543;28;20057;-74
2022/01/31 01:18:00;;;;;;;25.52;8.35;;;1.90;99.90;;;;;;5018097;28;20045;-73
2022/01/31 01:20:26;;;;;;;26.98;7.53;;;2.00;99.90;;;;;;5022424;28;20112;-73
2022/01/31 01:22:52;;;;;;;18.83;7.20;;;1.90;99.90;;;;;;5033377;28;20060;-73
2022/01/31 01:25:17;;;;;;;26.90;7.97;;;1.90;99.90;;;;;;5033284;28;20107;-73
2022/01/31 01:27:46;;;;;;;28.10;6.72;;;1.90;99.90;;;;;;5033063;28;20030;-74
2022/01/31 01:30:14;;;;;;;24.38;7.38;;;1.90;99.90;;;;;;5033618;28;20017;-73
2022/01/31 01:32:49;;;;;;;28.48;7.72;;;1.90;99.90;;;;;;5032844;28;20024;-73
2022/01/31 01:35:16;;;;;;;28.17;7.82;;;1.80;99.90;;;;;;5031836;28;20029;-74
2022/01/31 01:37:42;;;;;;;24.83;7.97;;;1.80;99.90;;;;;;5033159;28;20033;-73
2022/01/31 01:40:08;;;;;;;32.20;8.05;;;1.70;99.90;;;;;;5030495;28;20105;-74
2022/01/31 01:42:34;;;;;;;31.73;8.27;;;1.70;99.90;;;;;;5029841;28;20108;-74
2022/01/31 01:45:00;;;;;;;27.50;7.20;;;1.60;99.90;;;;;;5032693;28;20026;-73
2022/01/31 01:47:25;;;;;;;23.58;8.10;;;1.70;99.90;;;;;;5032447;28;20099;-74
2022/01/31 01:49:52;;;;;;;26.27;7.35;;;1.70;99.90;;;;;;5032547;28;20549;-73
2022/01/31 01:52:19;;;;;;;27.90;8.13;;;1.70;99.90;;;;;;5032305;28;20033;-74
2022/01/31 01:54:45;;;;;;;23.88;8.70;;;1.70;99.90;;;;;;5032768;28;20479;-74
2022/01/31 01:57:11;;;;;;;26.25;7.45;;;1.80;99.90;;;;;;5031018;28;20502;-72
2022/01/31 01:59:39;;;;;;;29.33;8.07;;;1.80;99.90;;;;;;5032813;28;20022;-72
2022/01/31 02:02:05;;;;;;;25.73;7.80;;;1.60;99.90;;;;;;5031049;28;20039;-72
2022/01/31 02:04:32;;;;;;;24.83;7.18;;;1.60;99.90;;;;;;5032816;28;20025;-72
2022/01/31 02:06:58;;;;;;;21.23;8.30;;;1.50;99.90;;;;;;5028088;28;20026;-72
2022/01/31 02:09:26;;;;;;;20.95;7.47;;;1.60;99.90;;;;;;5024538;28;20391;-72
2022/01/31 02:11:54;;;;;;;24.50;7.65;;;1.60;99.90;;;;;;5019124;28;20083;-72
2022/01/31 02:14:21;;;;;;;21.08;6.95;;;1.50;99.90;;;;;;5032911;28;20534;-74
2022/01/31 02:16:49;;;;;;;24.98;7.47;;;1.50;99.90;;;;;;5026680;28;20487;-73
2022/01/31 02:19:16;;;;;;;24.60;7.13;;;1.60;99.90;;;;;;5013013;28;20053;-74
2022/01/31 02:21:44;;;;;;;31.02;8.77;;;1.50;99.90;;;;;;5011173;28;20470;-75
2022/01/31 02:24:10;;;;;;;22.92;7.22;;;1.60;99.90;;;;;;5012508;28;20091;-73
2022/01/31 02:26:37;;;;;;;26.67;8.05;;;1.50;99.90;;;;;;5021032;28;20092;-73
2022/01/31 02:29:02;;;;;;;20.67;6.57;;;1.40;99.90;;;;;;5033485;28;20071;-74
2022/01/31 02:31:28;;;;;;;26.10;7.25;;;1.60;99.90;;;;;;5030135;28;20512;-74
2022/01/31 02:33:53;;;;;;;20.70;6.45;;;1.50;99.90;;;;;;5031688;28;20053;-73
2022/01/31 02:36:19;;;;;;;22.38;6.68;;;1.50;99.90;;;;;;5031760;28;20029;-74
2022/01/31 02:38:44;;;;;;;25.33;6.97;;;1.50;99.90;;;;;;5030580;28;20037;-75
2022/01/31 02:41:10;;;;;;;22.13;7.22;;;1.40;99.90;;;;;;5031400;28;20033;-74
2022/01/31 02:43:36;;;;;;;22.70;7.03;;;1.40;99.90;;;;;;5030503;28;20395;-74
2022/01/31 02:46:02;;;;;;;22.85;7.07;;;1.40;99.90;;;;;;5031557;28;20051;-74
2022/01/31 02:48:32;;;;;;;19.67;6.75;;;1.50;99.90;;;;;;5031854;28;20013;-74
2022/01/31 02:50:57;;;;;;;18.40;6.72;;;1.30;99.90;;;;;;5031185;28;20101;-74
2022/01/31 02:53:29;;;;;;;21.02;6.43;;;1.40;99.90;;;;;;5030268;28;20109;-74
2022/01/31 02:55:57;;;;;;;24.25;6.70;;;1.30;99.90;;;;;;5010701;28;20522;-74
2022/01/31 02:58:24;;;;;;;22.10;6.70;;;1.40;99.90;;;;;;5011758;28;20026;-73
2022/01/31 03:00:51;;;;;;;23.23;6.50;;;1.30;99.90;;;;;;5016415;28;20031;-73
2022/01/31 03:03:17;;;;;;;21.55;6.53;;;1.40;99.90;;;;;;5026529;28;20033;-73
2022/01/31 03:05:43;;;;;;;17.55;6.60;;;1.30;99.90;;;;;;5031503;28;20393;-73
2022/01/31 03:08:08;;;;;;;23.90;6.93;;;1.40;99.90;;;;;;5030204;28;20017;-73
2022/01/31 03:10:34;;;;;;;24.40;6.80;;;1.30;99.90;;;;;;5031216;28;20033;-74
2022/01/31 03:13:03;;;;;;;21.45;7.07;;;1.40;99.90;;;;;;5030108;22;20522;-75
2022/01/31 03:15:29;;;;;;;21.98;6.53;;;1.30;99.90;;;;;;5005092;28;20033;-74
2022/01/31 03:17:54;;;;;;;17.77;6.85;;;1.40;99.90;;;;;;4999191;28;20018;-75
2022/01/31 03:20:22;;;;;;;21.23;6.35;;;1.50;99.90;;;;;;4992361;28;20037;-76
2022/01/31 03:22:48;;;;;;;19.30;5.88;;;1.40;99.90;;;;;;4987173;28;20018;-76
2022/01/31 03:25:14;;;;;;;17.52;6.35;;;1.50;99.90;;;;;;4979789;28;20037;-75
2022/01/31 03:27:40;;;;;;;23.58;6.75;;;1.40;99.90;;;;;;4975872;28;20019;-75
2022/01/31 03:30:09;;;;;;;23.02;7.07;;;1.40;99.90;;;;;;4978726;28;20049;-76
2022/01/31 03:32:35;;;;;;;13.57;6.05;;;1.40;99.90;;;;;;4986365;28;20032;-76
2022/01/31 03:35:01;;;;;;;20.23;6.30;;;1.50;99.90;;;;;;4987433;28;20027;-75
2022/01/31 03:37:28;;;;;;;15.23;6.03;;;1.40;99.90;;;;;;4986347;28;20387;-76
2022/01/31 03:39:53;;;;;;;16.95;6.15;;;1.40;99.90;;;;;;4972904;28;20019;-75
2022/01/31 03:42:19;;;;;;;19.30;6.70;;;1.50;99.90;;;;;;4988167;28;20113;-75
2022/01/31 03:44:46;;;;;;;16.20;6.25;;;1.50;99.90;;;;;;4990601;28;20476;-74
2022/01/31 03:47:12;;;;;;;18.75;6.68;;;1.50;99.90;;;;;;4990481;28;20076;-73
2022/01/31 03:49:38;;;;;;;18.27;6.78;;;1.40;99.90;;;;;;4990595;28;20027;-73
2022/01/31 03:52:04;;;;;;;18.15;6.60;;;1.40;99.90;;;;;;4989223;28;20039;-74
2022/01/31 03:54:29;;;;;;;18.92;6.13;;;1.50;99.90;;;;;;4981112;28;20110;-73
2022/01/31 03:56:55;;;;;;;13.27;5.82;;;1.40;99.90;;;;;;4978870;28;20074;-74
2022/01/31 03:59:20;;;;;;;17.75;6.70;;;1.40;99.90;;;;;;4990514;28;20027;-74
2022/01/31 04:01:46;;;;;;;21.65;7.72;;;1.50;99.90;;;;;;4978779;28;20027;-75
2022/01/31 04:04:13;;;;;;;20.77;6.38;;;1.50;99.90;;;;;;4973106;28;20038;-74
2022/01/31 04:06:39;;;;;;;19.05;6.90;;;1.50;99.90;;;;;;4974374;28;20078;-73
2022/01/31 04:09:05;;;;;;;18.85;7.03;;;1.50;99.90;;;;;;4979176;28;20125;-74
2022/01/31 04:11:31;;;;;;;19.63;6.65;;;1.50;99.90;;;;;;4975567;28;20035;-73
2022/01/31 04:13:57;;;;;;;17.02;7.30;;;1.50;99.90;;;;;;4977071;28;20093;-74
2022/01/31 04:16:22;;;;;;;14.43;6.32;;;1.40;99.90;;;;;;4989911;28;20729;-74
2022/01/31 04:18:48;;;;;;;18.98;6.45;;;1.60;99.90;;;;;;4995035;28;20039;-74
2022/01/31 04:21:14;;;;;;;21.63;6.90;;;1.50;99.90;;;;;;4994410;28;20495;-74
2022/01/31 04:23:40;;;;;;;17.23;6.80;;;1.50;99.90;;;;;;4976569;28;20034;-73
2022/01/31 04:26:13;;;;;;;17.90;6.50;;;1.50;99.90;;;;;;4990768;28;20415;-75
2022/01/31 04:28:44;;;;;;;15.32;6.63;;;1.50;99.90;;;;;;4983711;28;20070;-74
2022/01/31 04:33:53;;;;;;;19.70;6.90;;;1.50;99.90;;;;;;4994915;28;20480;-74
2022/01/31 04:36:19;;;;;;;15.98;6.10;;;1.50;99.90;;;;;;4981694;28;20105;-74
2022/01/31 04:38:46;;;;;;;15.40;6.15;;;1.50;99.90;;;;;;4980304;28;20370;-74
2022/01/31 04:41:12;;;;;;;17.23;6.47;;;1.50;99.90;;;;;;4986500;28;20033;-74
2022/01/31 04:43:38;;;;;;;16.33;6.72;;;1.50;99.90;;;;;;4987659;28;20034;-73
2022/01/31 04:46:06;;;;;;;13.30;5.93;;;1.60;99.90;;;;;;4994980;28;20480;-74
2022/01/31 04:48:33;;;;;;;18.30;6.82;;;1.60;99.90;;;;;;4993271;28;20290;-75
2022/01/31 04:50:58;;;;;;;18.20;7.72;;;1.70;99.90;;;;;;4987461;28;20020;-76
2022/01/31 04:53:24;;;;;;;18.15;6.68;;;1.60;99.90;;;;;;4974930;28;20027;-75
2022/01/31 04:55:50;;;;;;;19.83;6.65;;;1.60;99.90;;;;;;4977027;28;20388;-76
2022/01/31 04:58:15;;;;;;;15.43;6.78;;;1.60;99.90;;;;;;4974888;28;20030;-77
2022/01/31 05:00:42;;;;;;;14.70;6.32;;;1.70;99.90;;;;;;4985480;28;20030;-75
2022/01/31 05:03:13;;;;;;;12.80;6.38;;;1.60;99.90;;;;;;4978560;28;20039;-75
2022/01/31 05:05:40;;;;;;;14.15;6.72;;;1.50;99.90;;;;;;4987156;28;20105;-75
2022/01/31 05:08:06;;;;;;;16.40;6.75;;;1.60;99.90;;;;;;4992730;28;20022;-75
2022/01/31 05:10:35;;;;;;;19.80;7.57;;;1.60;99.90;;;;;;4993937;28;20029;-75
2022/01/31 05:13:02;;;;;;;21.23;7.28;;;1.50;99.90;;;;;;4993827;28;20065;-76
2022/01/31 05:15:28;;;;;;;15.23;7.53;;;1.60;99.90;;;;;;4994143;28;20081;-75
2022/01/31 05:17:53;;;;;;;24.15;10.10;;;1.60;99.90;;;;;;4994094;28;20511;-75
2022/01/31 05:20:19;;;;;;;23.63;11.50;;;1.60;99.90;;;;;;4993834;28;20038;-75
2022/01/31 05:22:45;;;;;;;23.67;11.93;;;1.60;99.90;;;;;;4992402;28;20030;-75
2022/01/31 05:25:10;;;;;;;24.20;11.45;;;1.60;99.90;;;;;;4993855;28;20027;-76
2022/01/31 05:27:36;;;;;;;19.23;9.93;;;1.60;99.90;;;;;;4992459;28;20026;-76
2022/01/31 05:30:03;;;;;;;21.52;7.25;;;1.60;99.90;;;;;;4992653;28;20089;-76
2022/01/31 05:32:29;;;;;;;17.88;7.03;;;1.60;99.90;;;;;;4992077;28;20034;-74
2022/01/31 05:34:54;;;;;;;16.20;6.70;;;1.60;99.90;;;;;;4993798;28;20109;-74
2022/01/31 05:37:20;;;;;;;18.27;6.88;;;1.60;99.90;;;;;;4992477;28;20049;-75
2022/01/31 05:39:46;;;;;;;17.30;6.93;;;1.60;99.90;;;;;;4987896;28;20036;-75
2022/01/31 05:42:12;;;;;;;15.07;7.13;;;1.60;99.90;;;;;;4989537;28;20022;-76
2022/01/31 05:44:37;;;;;;;15.18;7.25;;;1.60;99.90;;;;;;4993556;28;20018;-76
2022/01/31 05:47:03;;;;;;;16.17;7.05;;;1.60;99.90;;;;;;4993465;28;20041;-73
2022/01/31 05:49:29;;;;;;;16.80;7.07;;;1.60;99.90;;;;;;4993540;28;20058;-77
2022/01/31 05:52:04;;;;;;;16.17;6.45;;;1.70;99.90;;;;;;4993158;28;20072;-76
2022/01/31 05:54:31;;;;;;;16.15;7.20;;;1.60;99.90;;;;;;4993358;28;20026;-76
2022/01/31 05:56:57;;;;;;;18.00;7.72;;;1.50;99.90;;;;;;4991799;28;20129;-75
2022/01/31 05:59:23;;;;;;;16.67;8.18;;;1.70;99.90;;;;;;4993574;28;20475;-76
2022/01/31 06:01:48;;;;;;;19.45;8.32;;;1.60;99.90;;;;;;4988318;28;20026;-73
2022/01/31 06:04:14;;;;;;;19.77;9.55;;;1.70;99.90;;;;;;4981158;28;20373;-75
2022/01/31 06:06:40;;;;;;;18.42;7.97;;;1.70;99.90;;;;;;4989925;28;20044;-75
2022/01/31 06:09:05;;;;;;;23.20;8.43;;;1.70;99.90;;;;;;4990335;28;20019;-74
2022/01/31 06:11:33;;;;;;;21.80;8.88;;;1.70;99.90;;;;;;4976279;28;20491;-74
2022/01/31 06:14:00;;;;;;;18.02;9.13;;;1.70;99.90;;;;;;4981922;28;20021;-74
2022/01/31 06:16:29;;;;;;;18.90;8.02;;;1.70;99.90;;;;;;4992076;28;20018;-74
2022/01/31 06:18:56;;;;;;;21.27;7.47;;;1.70;99.90;;;;;;4991650;28;20101;-74
2022/01/31 06:21:21;;;;;;;17.40;8.02;;;1.80;99.90;;;;;;4979685;28;20480;-73
2022/01/31 06:23:47;;;;;;;18.75;8.35;;;1.70;99.90;;;;;;4991638;28;20081;-72
2022/01/31 06:26:13;;;;;;;19.67;8.68;;;1.60;99.90;;;;;;4991407;28;20035;-73
2022/01/31 06:28:38;;;;;;;22.98;8.88;;;1.70;99.90;;;;;;4973262;28;20033;-73
2022/01/31 06:31:04;;;;;;;18.55;8.23;;;1.70;99.90;;;;;;4974300;28;20605;-72
2022/01/31 06:33:30;;;;;;;20.95;8.70;;;1.50;99.90;;;;;;4981145;28;20026;-72
2022/01/31 06:35:55;;;;;;;25.35;9.52;;;1.40;99.90;;;;;;4983667;28;20074;-72
2022/01/31 06:38:22;;;;;;;28.52;10.75;;;1.30;99.90;;;;;;4982744;28;20037;-75
2022/01/31 06:40:49;;;;;;;19.73;9.18;;;1.30;99.90;;;;;;4992292;28;20026;-74
2022/01/31 06:43:14;;;;;;;25.08;11.00;;;1.20;99.90;;;;;;4992436;28;20027;-73
2022/01/31 06:45:41;;;;;;;25.42;10.68;;;1.30;99.90;;;;;;4992525;28;20030;-74
2022/01/31 06:48:07;;;;;;;25.27;11.07;;;1.10;99.90;;;;;;4991249;28;20022;-74
2022/01/31 06:50:33;;;;;;;22.25;10.60;;;1.10;99.90;;;;;;4991115;28;20022;-74
2022/01/31 06:53:01;;;;;;;26.70;11.25;;;1.10;99.90;;;;;;4991310;28;20153;-73
2022/01/31 06:55:28;;;;;;;28.17;12.02;;;1.10;99.90;;;;;;4992398;28;20113;-74
2022/01/31 06:57:54;;;;;;;25.02;12.32;;;1.10;99.90;;;;;;4990837;28;20027;-75
2022/01/31 07:00:20;;;;;;;30.08;13.32;;;1.10;99.90;;;;;;4992084;28;20033;-74
2022/01/31 07:02:47;;;;;;;29.33;14.82;;;1.10;99.90;;;;;;4992165;28;20084;-74
2022/01/31 07:05:14;;;;;;;32.85;16.80;;;1.00;99.90;;;;;;4992001;28;20040;-75
2022/01/31 07:07:40;;;;;;;40.90;28.23;;;1.00;99.90;;;;;;4992423;28;20027;-74
2022/01/31 07:10:06;;;;;;;27.80;19.35;;;1.00;99.90;;;;;;4989885;28;20022;-74
2022/01/31 07:12:37;;;;;;;35.53;21.42;;;0.90;99.90;;;;;;4991969;28;20415;-74
2022/01/31 07:15:06;;;;;;;33.03;22.70;;;0.90;99.90;;;;;;4992089;28;20081;-74
2022/01/31 07:17:32;;;;;;;32.47;19.27;;;0.90;99.90;;;;;;4992313;28;20489;-73
2022/01/31 07:19:58;;;;;;;36.47;24.25;;;0.90;99.90;;;;;;4979095;28;20092;-72
2022/01/31 07:22:32;;;;;;;26.80;14.65;;;0.90;99.90;;;;;;4982846;28;20042;-73
2022/01/31 07:25:06;;;;;;;22.55;12.98;;;0.90;99.90;;;;;;4977215;28;20080;-73
2022/01/31 07:27:32;;;;;;;27.88;16.85;;;0.90;99.90;;;;;;4985326;28;20033;-73
2022/01/31 07:29:58;;;;;;;29.27;17.83;;;0.90;99.90;;;;;;4976001;28;20117;-72
2022/01/31 07:32:24;;;;;;;27.98;18.92;;;0.90;99.90;;;;;;4984380;28;20035;-72
2022/01/31 07:34:53;;;;;;;26.05;17.25;;;0.90;99.90;;;;;;4984123;28;20018;-73
2022/01/31 07:37:19;;;;;;;29.55;22.77;;;0.90;99.90;;;;;;4986791;28;20036;-74
2022/01/31 07:39:45;;;;;;;24.63;17.63;;;0.80;99.90;;;;;;4981528;28;20023;-74
2022/01/31 07:42:10;;;;;;;22.58;15.77;;;0.90;99.90;;;;;;4988810;28;20157;-74
2022/01/31 07:44:36;;;;;;;26.20;19.40;;;0.80;99.90;;;;;;4992000;28;20050;-74
2022/01/31 07:47:03;;;;;;;22.17;15.05;;;0.80;99.90;;;;;;4980427;28;20030;-74
2022/01/31 07:49:29;;;;;;;22.98;16.15;;;0.80;99.90;;;;;;4995924;28;20461;-74
2022/01/31 07:51:56;;;;;;;22.25;14.50;;;0.80;99.90;;;;;;4982211;28;20034;-74
2022/01/31 07:54:22;;;;;;;22.15;15.23;;;0.80;99.90;;;;;;4991222;28;20017;-74
2022/01/31 07:56:47;;;;;;;23.45;15.43;;;0.90;99.90;;;;;;4993793;28;20022;-73
2022/01/31 07:59:13;;;;;;;57.83;40.40;;;0.90;99.90;;;;;;4995363;28;20061;-74
2022/01/31 08:01:39;;;;;;;32.78;24.52;;;0.90;99.90;;;;;;4995265;28;20527;-74
2022/01/31 08:04:04;;;;;;;17.75;12.02;;;1.00;99.90;;;;;;4987803;28;20034;-74
2022/01/31 08:06:30;;;;;;;24.65;17.80;;;0.90;99.90;;;;;;4995320;28;20034;-74
2022/01/31 08:08:55;;;;;;;112.90;69.95;;;0.80;99.90;;;;;;4995282;28;20113;-73
2022/01/31 08:11:23;;;;;;;29.90;21.52;;;0.90;99.90;;;;;;4993806;28;20030;-74
2022/01/31 08:13:54;;;;;;;17.42;10.77;;;0.90;99.90;;;;;;4995350;28;20054;-74
2022/01/31 08:16:20;;;;;;;13.60;10.18;;;0.90;99.90;;;;;;4994092;28;20022;-73
2022/01/31 08:18:46;;;;;;;13.52;9.55;;;1.10;99.90;;;;;;4995199;28;20031;-73
2022/01/31 08:21:13;;;;;;;13.52;8.75;;;1.20;99.90;;;;;;4994767;28;20484;-73
2022/01/31 08:23:40;;;;;;;8.82;7.93;;;1.10;99.90;;;;;;4993812;28;20084;-73
2022/01/31 08:26:12;;;;;;;10.27;7.93;;;1.10;99.90;;;;;;4994929;28;20057;-73
2022/01/31 08:28:50;;;;;;;9.85;6.70;;;1.20;99.90;;;;;;4985576;28;20488;-74
2022/01/31 08:31:24;;;;;;;9.05;7.10;;;1.20;99.90;;;;;;4992959;28;20389;-74
2022/01/31 08:34:05;;;;;;;9.38;7.22;;;1.30;99.90;;;;;;4993653;28;20493;-74
2022/01/31 08:36:34;;;;;;;8.00;5.82;;;1.40;99.90;;;;;;4975586;28;20034;-74
2022/01/31 08:39:21;;;;;;;6.68;5.10;;;1.40;99.90;;;;;;4976048;28;20030;-72
2022/01/31 08:41:49;;;;;;;6.22;5.35;;;1.50;99.90;;;;;;4994487;28;20034;-72
2022/01/31 08:44:17;;;;;;;6.03;5.30;;;1.40;99.90;;;;;;4994831;28;20084;-72
2022/01/31 08:46:45;;;;;;;7.95;5.43;;;1.40;99.90;;;;;;4995271;28;20030;-75
2022/01/31 08:49:13;;;;;;;7.38;6.00;;;1.50;99.90;;;;;;4993817;28;20033;-73
2022/01/31 08:51:39;;;;;;;8.20;5.85;;;1.60;99.90;;;;;;4978216;28;20062;-73
2022/01/31 08:54:06;;;;;;;5.95;5.32;;;1.60;99.90;;;;;;4979310;28;20031;-73
2022/01/31 08:56:38;;;;;;;7.32;5.45;;;1.60;99.90;;;;;;4981322;28;20026;-74
2022/01/31 08:59:05;;;;;;;6.28;5.68;;;1.70;99.90;;;;;;4980545;28;20109;-74
2022/01/31 09:01:31;;;;;;;6.80;6.05;;;1.80;99.90;;;;;;4981130;28;20038;-76
2022/01/31 09:04:03;;;;;;;8.77;6.22;;;1.70;99.90;;;;;;4993239;28;20400;-77
2022/01/31 09:06:30;;;;;;;7.13;6.20;;;1.90;99.90;;;;;;4994225;28;20019;-75
2022/01/31 09:08:57;;;;;;;8.52;6.13;;;1.80;99.90;;;;;;4994268;28;20022;-77
2022/01/31 09:11:25;;;;;;;7.22;6.00;;;2.00;99.90;;;;;;4981097;28;20436;-74
2022/01/31 09:13:50;;;;;;;6.78;6.05;;;2.10;99.90;;;;;;4986588;28;20030;-73
2022/01/31 09:16:17;;;;;;;7.93;6.00;;;1.90;99.90;;;;;;4985328;28;20066;-73
2022/01/31 09:18:42;;;;;;;8.45;6.97;;;1.90;99.90;;;;;;4974646;28;20468;-73
2022/01/31 09:21:08;;;;;;;8.23;6.53;;;2.00;99.90;;;;;;4987302;28;20037;-73
2022/01/31 09:23:34;;;;;;;8.85;7.30;;;2.00;99.90;;;;;;4976199;28;20039;-73
2022/01/31 09:25:59;;;;;;;8.52;6.07;;;2.00;99.90;;;;;;4986119;28;20026;-75
2022/01/31 09:28:26;;;;;;;10.60;6.75;;;2.10;99.90;;;;;;4974418;28;20505;-75
2022/01/31 09:30:53;;;;;;;9.70;6.32;;;2.20;99.90;;;;;;4987663;28;20096;-75
2022/01/31 09:33:19;;;;;;;6.78;6.00;;;2.10;99.90;;;;;;4987975;28;20019;-75
2022/01/31 09:35:45;;;;;;;8.50;6.55;;;2.10;99.90;;;;;;4987571;28;20033;-74
2022/01/31 09:38:16;;;;;;;7.90;5.97;;;2.20;99.90;;;;;;4993722;28;20027;-75
2022/01/31 09:40:43;;;;;;;7.03;6.13;;;2.10;99.90;;;;;;4993463;28;20073;-75
2022/01/31 09:48:33;;;;;;;9.35;6.38;;;2.30;99.90;;;;;;4982712;28;20058;-75
2022/01/31 09:51:04;;;;;;;9.00;6.30;;;2.30;99.90;;;;;;4966248;28;20101;-73
2022/01/31 09:53:31;;;;;;;8.82;6.32;;;2.40;99.90;;;;;;4993293;28;20427;-73
2022/01/31 09:55:57;;;;;;;7.35;5.68;;;2.50;99.90;;;;;;4984503;28;20022;-73
2022/01/31 09:58:29;;;;;;;7.47;5.65;;;2.50;99.90;;;;;;4987011;28;20037;-73
2022/01/31 10:01:32;;;;;;;6.25;5.55;;;2.70;99.90;;;;;;4981401;28;20033;-73
2022/01/31 10:04:09;;;;;;;7.43;5.82;;;2.60;99.90;;;;;;4968080;28;20038;-73
2022/01/31 10:06:39;;;;;;;8.13;5.60;;;2.60;99.90;;;;;;4991774;28;20037;-73
2022/01/31 10:09:21;;;;;;;6.85;5.20;;;2.60;99.90;;;;;;4992325;28;20101;-74
2022/01/31 10:12:10;;;;;;;6.15;5.20;;;2.60;99.90;;;;;;4992668;28;20544;-74
2022/01/31 10:17:33;;;;;;;7.60;4.88;;;2.70;99.90;;;;;;4984206;28;20041;-73
2022/01/31 10:20:08;;;;;;;6.72;4.90;;;2.70;99.90;;;;;;4991603;28;20029;-74
2022/01/31 10:22:36;;;;;;;6.40;4.47;;;2.70;99.90;;;;;;4992678;28;20036;-73
2022/01/31 10:25:07;;;;;;;6.00;4.50;;;2.80;99.90;;;;;;4992838;28;20507;-73
2022/01/31 10:27:34;;;;;;;7.20;4.97;;;2.80;99.90;;;;;;4979512;28;20031;-73
2022/01/31 10:30:18;;;;;;;5.28;4.40;;;2.80;99.90;;;;;;4979478;28;20105;-73
2022/01/31 10:32:47;;;;;;;6.90;4.25;;;2.80;99.90;;;;;;4972540;28;20077;-73
2022/01/31 10:35:19;;;;;;;5.90;4.05;;;2.90;99.90;;;;;;4981457;28;20147;-74
2022/01/31 10:37:45;;;;;;;5.72;4.45;;;2.90;99.90;;;;;;4991236;28;20495;-73
2022/01/31 10:46:08;;;;;;;4.85;3.78;;;3.00;99.90;;;;;;4990842;28;20033;-74
2022/01/31 10:56:53;;;;;;;6.53;3.92;;;3.00;99.90;;;;;;4992440;28;20093;-74
2022/01/31 10:59:30;;;;;;;6.65;3.80;;;3.00;99.90;;;;;;4984886;28;20082;-75
2022/01/31 11:01:58;;;;;;;6.85;3.90;;;3.00;99.90;;;;;;4978320;28;20381;-74
2022/01/31 11:04:28;;;;;;;6.43;3.75;;;3.00;99.90;;;;;;4981374;28;20026;-74
2022/01/31 11:07:00;;;;;;;5.40;3.63;;;3.00;99.90;;;;;;4979800;28;20089;-74
2022/01/31 11:09:26;;;;;;;5.60;3.88;;;3.00;99.90;;;;;;4979849;28;20035;-74
2022/01/31 11:11:51;;;;;;;5.88;3.50;;;3.00;99.90;;;;;;4983342;28;20077;-74
2022/01/31 11:14:20;;;;;;;6.65;4.20;;;3.00;99.90;;;;;;4987345;28;20106;-75
2022/01/31 11:16:47;;;;;;;5.45;3.30;;;3.00;99.90;;;;;;4981811;28;20018;-74
2022/01/31 11:19:17;;;;;;;6.32;3.90;;;3.00;99.90;;;;;;4989020;28;20396;-75
2022/01/31 11:21:46;;;;;;;5.93;3.80;;;3.10;99.90;;;;;;4993541;28;20026;-74
2022/01/31 11:24:20;;;;;;;6.50;3.90;;;3.10;99.90;;;;;;4986104;28;20045;-74
2022/01/31 11:26:53;;;;;;;6.72;3.90;;;3.00;99.90;;;;;;4987533;28;20022;-73
2022/01/31 11:29:19;;;;;;;6.18;3.58;;;3.00;99.90;;;;;;4981960;28;20023;-73
2022/01/31 11:31:45;;;;;;;5.65;3.92;;;3.00;99.90;;;;;;4995757;28;20034;-74
2022/01/31 11:34:12;;;;;;;6.13;4.03;;;2.90;99.90;;;;;;4988466;28;20039;-74
2022/01/31 11:36:39;;;;;;;5.90;3.88;;;3.00;99.90;;;;;;4983007;28;20049;-74
2022/01/31 11:39:10;;;;;;;5.22;3.70;;;2.90;99.90;;;;;;4992999;28;20034;-74
2022/01/31 11:41:42;;;;;;;5.15;3.55;;;2.90;99.90;;;;;;4991044;28;20054;-73
2022/01/31 11:44:25;;;;;;;5.88;3.85;;;2.90;99.90;;;;;;4993006;28;20026;-74
2022/01/31 11:46:53;;;;;;;6.22;4.47;;;2.90;99.90;;;;;;4987589;28;20591;-74
2022/01/31 11:49:19;;;;;;;6.60;4.13;;;3.00;99.90;;;;;;4976607;28;20015;-74
2022/01/31 11:52:06;;;;;;;5.20;3.80;;;2.90;99.90;;;;;;4986043;28;20488;-74
2022/01/31 11:54:35;;;;;;;6.05;4.35;;;2.90;99.90;;;;;;4991258;28;20122;-74
2022/01/31 11:57:00;;;;;;;6.35;4.13;;;2.90;99.90;;;;;;4989146;28;20023;-74
2022/01/31 11:59:27;;;;;;;6.95;3.85;;;3.00;99.90;;;;;;4986131;28;20022;-74
2022/01/31 12:01:57;;;;;;;8.13;3.97;;;3.00;99.90;;;;;;4978684;28;20023;-74
2022/01/31 12:04:23;;;;;;;7.43;4.50;;;3.00;99.90;;;;;;4988582;28;20591;-74
2022/01/31 12:06:50;;;;;;;5.82;3.90;;;3.00;99.90;;;;;;4990745;28;20049;-74
2022/01/31 12:09:18;;;;;;;4.65;3.92;;;3.10;99.90;;;;;;4993725;28;20026;-74
2022/01/31 12:12:10;;;;;;;6.05;4.00;;;3.10;99.90;;;;;;4991412;28;20022;-74
2022/01/31 12:14:51;;;;;;;5.07;3.22;;;3.10;99.90;;;;;;4984056;28;20504;-75
2022/01/31 12:17:53;;;;;;;6.57;3.72;;;3.20;99.90;;;;;;4985991;28;20056;-75
2022/01/31 12:23:38;;;;;;;;;;;3.10;99.90;;;;;;4985364;28;20396;-75
2022/01/31 12:26:32;;;;;;;5.03;3.20;;;3.20;99.90;;;;;;4983331;28;19921;-75
2022/01/31 12:29:01;;;;;;;4.20;3.15;;;3.20;99.90;;;;;;4986905;28;20043;-74
2022/01/31 12:31:37;;;;;;;6.53;3.22;;;3.20;99.90;;;;;;4980068;28;20019;-74
2022/01/31 12:34:28;;;;;;;4.38;3.08;;;3.20;99.90;;;;;;4977379;28;20469;-74
2022/01/31 12:36:57;;;;;;;3.40;2.90;;;3.20;99.90;;;;;;4973296;28;20043;-74
2022/01/31 12:39:29;;;;;;;4.47;2.70;;;3.20;99.90;;;;;;4979405;28;20022;-74
2022/01/31 12:42:15;;;;;;;6.40;2.97;;;3.10;99.90;;;;;;4980214;28;20031;-73
2022/01/31 12:44:42;;;;;;;3.47;2.20;;;3.20;99.90;;;;;;4970739;28;20509;-75
2022/01/31 12:47:17;;;;;;;3.90;1.88;;;3.30;99.90;;;;;;4988707;28;20025;-74
2022/01/31 12:49:44;;;;;;;1.80;1.70;;;3.20;99.90;;;;;;4991912;28;20229;-74
2022/01/31 12:52:10;;;;;;;4.47;1.77;;;3.20;99.90;;;;;;4989996;28;20394;-74
2022/01/31 12:54:39;;;;;;;4.25;2.10;;;3.10;99.90;;;;;;4989237;28;20022;-73
2022/01/31 12:57:10;;;;;;;4.65;2.22;;;3.20;99.90;;;;;;4985086;28;20093;-73
2022/01/31 12:59:36;;;;;;;3.72;2.20;;;3.10;99.90;;;;;;4986297;28;20018;-73
2022/01/31 13:02:07;;;;;;;3.60;2.10;;;3.20;99.90;;;;;;4984196;28;20365;-72
2022/01/31 13:04:33;;;;;;;2.10;1.88;;;3.10;99.90;;;;;;4983314;28;20106;-73
2022/01/31 13:07:08;;;;;;;2.90;2.10;;;3.10;99.90;;;;;;4989023;28;20164;-72
2022/01/31 13:09:37;;;;;;;3.33;1.85;;;3.10;99.90;;;;;;4991117;28;20018;-73
2022/01/31 13:12:05;;;;;;;3.38;2.13;;;3.00;99.90;;;;;;4986164;28;20113;-73
2022/01/31 13:14:34;;;;;;;3.65;2.05;;;3.10;99.90;;;;;;4979211;28;20113;-73
2022/01/31 13:17:08;;;;;;;4.47;2.30;;;3.10;99.90;;;;;;4970618;28;20477;-73
2022/01/31 13:19:39;;;;;;;2.17;1.90;;;3.10;99.90;;;;;;4977519;28;20023;-73
2022/01/31 13:22:08;;;;;;;3.72;2.15;;;3.00;99.90;;;;;;4990859;28;20024;-73